sensor_id;sensor_type;location;lat;lon;timestamp;pressure;altitude;pressure_sealevel;temperature;humidity
6680;BME280;3376;42.664;23.346;2022-12-07T00:02:26;94514.03;;;6.77;100.00
6680;BME280;3376;42.664;23.346;2022-12-07T00:04:53;94529.06;;;6.89;100.00
6680;BME280;3376;42.664;23.346;2022-12-07T00:07:20;94498.38;;;6.70;100.00
6680;BME280;3376;42.664;23.346;2022-12-07T00:09:48;94526.31;;;6.91;100.00
6680;BME280;3376;42.664;23.346;2022-12-07T00:12:15;94518.56;;;6.83;100.00
6680;BME280;3376;42.664;23.346;2022-12-07T00:14:42;94511.31;;;6.78;100.00
6680;BME280;3376;42.664;23.346;2022-12-07T00:17:08;94520.03;;;6.85;100.00
6680;BME280;3376;42.664;23.346;2022-12-07T00:19:35;94505.72;;;6.91;100.00
6680;BME280;3376;42.664;23.346;2022-12-07T00:22:02;94515.75;;;6.94;100.00
6680;BME280;3376;42.664;23.346;2022-12-07T00:24:28;94508.28;;;6.83;100.00
6680;BME280;3376;42.664;23.346;2022-12-07T00:26:56;94512.50;;;6.92;100.00
6680;BME280;3376;42.664;23.346;2022-12-07T00:29:23;94499.03;;;6.72;100.00
6680;BME280;3376;42.664;23.346;2022-12-07T00:31:50;94523.06;;;6.81;100.00
6680;BME280;3376;42.664;23.346;2022-12-07T00:34:19;94514.34;;;6.74;100.00
6680;BME280;3376;42.664;23.346;2022-12-07T00:36:46;94499.00;;;6.64;100.00
6680;BME280;3376;42.664;23.346;2022-12-07T00:39:13;94526.91;;;6.77;100.00
6680;BME280;3376;42.664;23.346;2022-12-07T00:41:40;94523.38;;;6.78;100.00
6680;BME280;3376;42.664;23.346;2022-12-07T00:44:09;94319.72;;;5.54;100.00
6680;BME280;3376;42.664;23.346;2022-12-07T00:46:35;94511.50;;;6.85;100.00
6680;BME280;3376;42.664;23.346;2022-12-07T00:49:02;94519.88;;;6.87;100.00
6680;BME280;3376;42.664;23.346;2022-12-07T00:51:29;94516.81;;;6.83;100.00
6680;BME280;3376;42.664;23.346;2022-12-07T00:53:56;94502.03;;;6.85;100.00
6680;BME280;3376;42.664;23.346;2022-12-07T00:56:24;94502.81;;;6.86;100.00
6680;BME280;3376;42.664;23.346;2022-12-07T00:58:53;94505.34;;;6.78;100.00
6680;BME280;3376;42.664;23.346;2022-12-07T01:01:23;94477.66;;;6.46;100.00
6680;BME280;3376;42.664;23.346;2022-12-07T01:03:50;94505.38;;;6.86;100.00
6680;BME280;3376;42.664;23.346;2022-12-07T01:06:18;94485.72;;;6.77;100.00
6680;BME280;3376;42.664;23.346;2022-12-07T01:08:45;94510.25;;;6.89;100.00
6680;BME280;3376;42.664;23.346;2022-12-07T01:11:14;94499.72;;;6.82;100.00
6680;BME280;3376;42.664;23.346;2022-12-07T01:13:41;94503.50;;;6.62;100.00
6680;BME280;3376;42.664;23.346;2022-12-07T01:16:10;94498.19;;;6.64;100.00
6680;BME280;3376;42.664;23.346;2022-12-07T01:18:39;94491.75;;;6.60;100.00
6680;BME280;3376;42.664;23.346;2022-12-07T01:21:07;94499.00;;;6.64;100.00
6680;BME280;3376;42.664;23.346;2022-12-07T01:23:35;94482.75;;;6.64;100.00
6680;BME280;3376;42.664;23.346;2022-12-07T01:26:05;94451.06;;;6.38;100.00
6680;BME280;3376;42.664;23.346;2022-12-07T01:28:32;94473.63;;;6.69;100.00
6680;BME280;3376;42.664;23.346;2022-12-07T01:31:00;94488.44;;;6.75;100.00
6680;BME280;3376;42.664;23.346;2022-12-07T01:33:28;94488.09;;;6.70;100.00
6680;BME280;3376;42.664;23.346;2022-12-07T01:36:00;94491.31;;;6.72;100.00
6680;BME280;3376;42.664;23.346;2022-12-07T01:38:28;94466.22;;;6.66;100.00
6680;BME280;3376;42.664;23.346;2022-12-07T01:40:55;94481.50;;;6.68;100.00
6680;BME280;3376;42.664;23.346;2022-12-07T01:43:24;94485.50;;;6.70;100.00
6680;BME280;3376;42.664;23.346;2022-12-07T01:45:52;94491.94;;;6.66;100.00
6680;BME280;3376;42.664;23.346;2022-12-07T01:48:22;94493.75;;;6.48;100.00
6680;BME280;3376;42.664;23.346;2022-12-07T01:50:51;94497.09;;;6.66;100.00
6680;BME280;3376;42.664;23.346;2022-12-07T01:53:21;94456.72;;;6.41;100.00
6680;BME280;3376;42.664;23.346;2022-12-07T01:55:52;94484.47;;;6.55;100.00
6680;BME280;3376;42.664;23.346;2022-12-07T01:58:20;94471.38;;;6.41;100.00
6680;BME280;3376;42.664;23.346;2022-12-07T02:00:47;94451.06;;;6.38;100.00
6680;BME280;3376;42.664;23.346;2022-12-07T02:03:17;94417.34;;;6.15;100.00
6680;BME280;3376;42.664;23.346;2022-12-07T02:05:46;94461.44;;;6.46;100.00
6680;BME280;3376;42.664;23.346;2022-12-07T02:08:13;94444.31;;;6.37;100.00
6680;BME280;3376;42.664;23.346;2022-12-07T02:10:41;94433.56;;;6.41;100.00
6680;BME280;3376;42.664;23.346;2022-12-07T02:13:12;94466.03;;;6.60;100.00
6680;BME280;3376;42.664;23.346;2022-12-07T02:15:52;94475.75;;;6.48;100.00
6680;BME280;3376;42.664;23.346;2022-12-07T02:18:35;94459.28;;;6.41;100.00
6680;BME280;3376;42.664;23.346;2022-12-07T02:21:09;94468.88;;;6.57;100.00
6680;BME280;3376;42.664;23.346;2022-12-07T02:23:51;94472.09;;;6.59;100.00
6680;BME280;3376;42.664;23.346;2022-12-07T02:29:24;94375.84;;;5.84;100.00
6680;BME280;3376;42.664;23.346;2022-12-07T02:31:58;94453.50;;;6.39;100.00
6680;BME280;3376;42.664;23.346;2022-12-07T02:34:39;94444.53;;;6.43;100.00
6680;BME280;3376;42.664;23.346;2022-12-07T02:37:14;94430.22;;;6.41;100.00
6680;BME280;3376;42.664;23.346;2022-12-07T02:39:49;94430.28;;;6.31;100.00
6680;BME280;3376;42.664;23.346;2022-12-07T02:42:21;94455.59;;;6.36;100.00
6680;BME280;3376;42.664;23.346;2022-12-07T02:44:50;94459.25;;;6.33;100.00
6680;BME280;3376;42.664;23.346;2022-12-07T02:47:18;94445.84;;;6.22;100.00
6680;BME280;3376;42.664;23.346;2022-12-07T02:49:49;94461.31;;;6.30;100.00
6680;BME280;3376;42.664;23.346;2022-12-07T02:52:16;94443.28;;;6.22;100.00
6680;BME280;3376;42.664;23.346;2022-12-07T02:54:42;94455.34;;;6.29;100.00
6680;BME280;3376;42.664;23.346;2022-12-07T02:57:21;94446.84;;;6.29;100.00
6680;BME280;3376;42.664;23.346;2022-12-07T03:00:00;94454.22;;;6.24;100.00
6680;BME280;3376;42.664;23.346;2022-12-07T03:02:35;94444.03;;;5.96;100.00
6680;BME280;3376;42.664;23.346;2022-12-07T03:05:19;94442.09;;;5.90;100.00
6680;BME280;3376;42.664;23.346;2022-12-07T03:07:55;94436.94;;;5.90;100.00
6680;BME280;3376;42.664;23.346;2022-12-07T03:10:30;94436.63;;;5.93;100.00
6680;BME280;3376;42.664;23.346;2022-12-07T03:13:02;94431.34;;;5.95;100.00
6680;BME280;3376;42.664;23.346;2022-12-07T03:15:35;94395.97;;;5.71;100.00
6680;BME280;3376;42.664;23.346;2022-12-07T03:18:07;94406.94;;;5.81;100.00
6680;BME280;3376;42.664;23.346;2022-12-07T03:20:37;94413.97;;;5.89;100.00
6680;BME280;3376;42.664;23.346;2022-12-07T03:23:06;94404.84;;;5.77;100.00
6680;BME280;3376;42.664;23.346;2022-12-07T03:25:38;94429.13;;;6.00;100.00
6680;BME280;3376;42.664;23.346;2022-12-07T03:28:07;94424.66;;;6.02;100.00
6680;BME280;3376;42.664;23.346;2022-12-07T03:30:42;94436.22;;;5.98;100.00
6680;BME280;3376;42.664;23.346;2022-12-07T03:33:12;94435.84;;;5.93;100.00
6680;BME280;3376;42.664;23.346;2022-12-07T03:35:42;94429.41;;;5.79;100.00
6680;BME280;3376;42.664;23.346;2022-12-07T03:38:15;94430.84;;;5.74;100.00
6680;BME280;3376;42.664;23.346;2022-12-07T03:40:48;94440.25;;;5.65;100.00
6680;BME280;3376;42.664;23.346;2022-12-07T03:43:17;94430.75;;;5.66;100.00
6680;BME280;3376;42.664;23.346;2022-12-07T03:45:53;94367.66;;;5.28;100.00
6680;BME280;3376;42.664;23.346;2022-12-07T03:48:26;94373.84;;;5.35;100.00
6680;BME280;3376;42.664;23.346;2022-12-07T03:51:03;94437.69;;;5.65;100.00
6680;BME280;3376;42.664;23.346;2022-12-07T03:53:36;94402.38;;;5.50;100.00
6680;BME280;3376;42.664;23.346;2022-12-07T03:56:06;94427.47;;;5.73;100.00
6680;BME280;3376;42.664;23.346;2022-12-07T03:58:35;94405.22;;;5.64;100.00
6680;BME280;3376;42.664;23.346;2022-12-07T04:01:03;94417.66;;;5.69;100.00
6680;BME280;3376;42.664;23.346;2022-12-07T04:03:30;94410.81;;;5.60;100.00
6680;BME280;3376;42.664;23.346;2022-12-07T04:05:57;94421.00;;;5.69;100.00
6680;BME280;3376;42.664;23.346;2022-12-07T04:08:24;94416.00;;;5.68;100.00
6680;BME280;3376;42.664;23.346;2022-12-07T04:10:51;94422.38;;;5.64;100.00
6680;BME280;3376;42.664;23.346;2022-12-07T04:13:18;94417.25;;;5.64;100.00
6680;BME280;3376;42.664;23.346;2022-12-07T04:15:45;94411.13;;;5.57;100.00
6680;BME280;3376;42.664;23.346;2022-12-07T04:18:13;94412.56;;;5.59;100.00
6680;BME280;3376;42.664;23.346;2022-12-07T04:20:39;94401.78;;;5.56;100.00
6680;BME280;3376;42.664;23.346;2022-12-07T04:23:06;94406.09;;;5.55;100.00
6680;BME280;3376;42.664;23.346;2022-12-07T04:25:33;94424.47;;;5.60;100.00
6680;BME280;3376;42.664;23.346;2022-12-07T04:28:00;94424.91;;;5.56;100.00
6680;BME280;3376;42.664;23.346;2022-12-07T04:30:26;94414.56;;;5.48;100.00
6680;BME280;3376;42.664;23.346;2022-12-07T04:32:53;94425.34;;;5.51;100.00
6680;BME280;3376;42.664;23.346;2022-12-07T04:35:21;94422.47;;;5.54;100.00
6680;BME280;3376;42.664;23.346;2022-12-07T04:37:48;94425.56;;;5.58;100.00
6680;BME280;3376;42.664;23.346;2022-12-07T04:40:15;94396.00;;;5.36;100.00
6680;BME280;3376;42.664;23.346;2022-12-07T04:42:41;94428.28;;;5.56;100.00
6680;BME280;3376;42.664;23.346;2022-12-07T04:45:09;94429.72;;;5.59;100.00
6680;BME280;3376;42.664;23.346;2022-12-07T04:47:36;94436.66;;;5.58;100.00
6680;BME280;3376;42.664;23.346;2022-12-07T04:50:03;94437.75;;;5.56;100.00
6680;BME280;3376;42.664;23.346;2022-12-07T04:52:31;94439.13;;;5.50;100.00
6680;BME280;3376;42.664;23.346;2022-12-07T04:54:58;94441.69;;;5.50;100.00
6680;BME280;3376;42.664;23.346;2022-12-07T04:57:24;94430.50;;;5.51;100.00
6680;BME280;3376;42.664;23.346;2022-12-07T04:59:51;94429.00;;;5.49;100.00
6680;BME280;3376;42.664;23.346;2022-12-07T05:02:18;94429.25;;;5.38;100.00
6680;BME280;3376;42.664;23.346;2022-12-07T05:04:45;94406.41;;;5.17;100.00
6680;BME280;3376;42.664;23.346;2022-12-07T05:07:11;94430.19;;;5.37;100.00
6680;BME280;3376;42.664;23.346;2022-12-07T05:09:39;94427.25;;;5.32;100.00
6680;BME280;3376;42.664;23.346;2022-12-07T05:12:06;94430.25;;;5.27;100.00
6680;BME280;3376;42.664;23.346;2022-12-07T05:14:33;94435.69;;;5.59;100.00
6680;BME280;3376;42.664;23.346;2022-12-07T05:17:00;94441.94;;;5.57;100.00
6680;BME280;3376;42.664;23.346;2022-12-07T05:19:26;94441.06;;;5.48;100.00
6680;BME280;3376;42.664;23.346;2022-12-07T05:21:54;94436.44;;;5.34;100.00
6680;BME280;3376;42.664;23.346;2022-12-07T05:24:21;94435.63;;;5.34;100.00
6680;BME280;3376;42.664;23.346;2022-12-07T05:26:49;94418.47;;;5.34;100.00
6680;BME280;3376;42.664;23.346;2022-12-07T05:29:16;94435.69;;;5.42;100.00
6680;BME280;3376;42.664;23.346;2022-12-07T05:31:44;94382.09;;;4.94;100.00
6680;BME280;3376;42.664;23.346;2022-12-07T05:34:11;94440.38;;;5.29;100.00
6680;BME280;3376;42.664;23.346;2022-12-07T05:36:37;94438.81;;;5.18;100.00
6680;BME280;3376;42.664;23.346;2022-12-07T05:39:04;94434.22;;;5.39;100.00
6680;BME280;3376;42.664;23.346;2022-12-07T05:41:31;94422.47;;;5.37;100.00
6680;BME280;3376;42.664;23.346;2022-12-07T05:44:16;94421.97;;;5.33;100.00
6680;BME280;3376;42.664;23.346;2022-12-07T05:46:43;94426.22;;;5.25;100.00
6680;BME280;3376;42.664;23.346;2022-12-07T05:49:10;94428.63;;;5.26;100.00
6680;BME280;3376;42.664;23.346;2022-12-07T05:51:37;94186.88;;;3.73;100.00
6680;BME280;3376;42.664;23.346;2022-12-07T05:54:03;94417.44;;;5.27;100.00
6680;BME280;3376;42.664;23.346;2022-12-07T05:56:30;94428.72;;;5.34;100.00
6680;BME280;3376;42.664;23.346;2022-12-07T05:58:57;94426.53;;;5.39;100.00
6680;BME280;3376;42.664;23.346;2022-12-07T06:01:42;94407.31;;;5.43;100.00
6680;BME280;3376;42.664;23.346;2022-12-07T06:04:09;94427.75;;;5.70;100.00
6680;BME280;3376;42.664;23.346;2022-12-07T06:06:36;94376.59;;;5.59;100.00
6680;BME280;3376;42.664;23.346;2022-12-07T06:09:03;94419.59;;;5.92;100.00
6680;BME280;3376;42.664;23.346;2022-12-07T06:11:30;94425.34;;;5.86;100.00
6680;BME280;3376;42.664;23.346;2022-12-07T06:14:14;94409.28;;;5.67;100.00
6680;BME280;3376;42.664;23.346;2022-12-07T06:16:43;94422.09;;;5.84;100.00
6680;BME280;3376;42.664;23.346;2022-12-07T06:19:09;94420.63;;;5.82;100.00
6680;BME280;3376;42.664;23.346;2022-12-07T06:21:36;94422.50;;;5.89;100.00
6680;BME280;3376;42.664;23.346;2022-12-07T06:24:04;94425.06;;;5.89;100.00
6680;BME280;3376;42.664;23.346;2022-12-07T06:26:31;94437.31;;;5.95;100.00
6680;BME280;3376;42.664;23.346;2022-12-07T06:28:57;94427.38;;;6.01;100.00
6680;BME280;3376;42.664;23.346;2022-12-07T06:31:24;94435.47;;;6.14;100.00
6680;BME280;3376;42.664;23.346;2022-12-07T06:33:57;94442.06;;;6.34;100.00
6680;BME280;3376;42.664;23.346;2022-12-07T06:36:24;94442.06;;;6.34;100.00
6680;BME280;3376;42.664;23.346;2022-12-07T06:38:50;94429.94;;;6.26;100.00
6680;BME280;3376;42.664;23.346;2022-12-07T06:41:17;94442.72;;;6.36;100.00
6680;BME280;3376;42.664;23.346;2022-12-07T06:43:44;94444.34;;;6.45;100.00
6680;BME280;3376;42.664;23.346;2022-12-07T06:46:11;94445.03;;;6.47;100.00
6680;BME280;3376;42.664;23.346;2022-12-07T06:48:37;94446.34;;;6.51;100.00
6680;BME280;3376;42.664;23.346;2022-12-07T06:51:06;94408.47;;;6.35;100.00
6680;BME280;3376;42.664;23.346;2022-12-07T06:53:32;94437.00;;;6.50;100.00
6680;BME280;3376;42.664;23.346;2022-12-07T06:55:59;94432.19;;;6.55;100.00
6680;BME280;3376;42.664;23.346;2022-12-07T06:58:26;94447.25;;;6.75;100.00
6680;BME280;3376;42.664;23.346;2022-12-07T07:00:53;94450.03;;;6.82;100.00
6680;BME280;3376;42.664;23.346;2022-12-07T07:03:20;94438.41;;;6.78;100.00
6680;BME280;3376;42.664;23.346;2022-12-07T07:05:47;94445.56;;;6.92;100.00
6680;BME280;3376;42.664;23.346;2022-12-07T07:08:16;94433.84;;;6.97;100.00
6680;BME280;3376;42.664;23.346;2022-12-07T07:10:42;94445.50;;;7.18;100.00
6680;BME280;3376;42.664;23.346;2022-12-07T07:13:09;94433.13;;;7.29;100.00
6680;BME280;3376;42.664;23.346;2022-12-07T07:15:37;94454.75;;;7.60;100.00
6680;BME280;3376;42.664;23.346;2022-12-07T07:18:04;94451.88;;;7.71;100.00
6680;BME280;3376;42.664;23.346;2022-12-07T07:20:31;94449.63;;;7.84;100.00
6680;BME280;3376;42.664;23.346;2022-12-07T07:22:58;94438.50;;;7.68;100.00
6680;BME280;3376;42.664;23.346;2022-12-07T07:25:26;94448.97;;;7.74;100.00
6680;BME280;3376;42.664;23.346;2022-12-07T07:27:53;94447.69;;;7.70;100.00
6680;BME280;3376;42.664;23.346;2022-12-07T07:30:20;94449.94;;;7.89;100.00
6680;BME280;3376;42.664;23.346;2022-12-07T07:32:47;94451.72;;;7.97;100.00
6680;BME280;3376;42.664;23.346;2022-12-07T07:35:14;94462.81;;;8.21;100.00
6680;BME280;3376;42.664;23.346;2022-12-07T07:37:41;94481.56;;;8.15;100.00
6680;BME280;3376;42.664;23.346;2022-12-07T07:40:08;94384.50;;;7.66;100.00
6680;BME280;3376;42.664;23.346;2022-12-07T07:42:37;94461.56;;;8.25;100.00
6680;BME280;3376;42.664;23.346;2022-12-07T07:45:05;94467.38;;;8.27;100.00
6680;BME280;3376;42.664;23.346;2022-12-07T07:47:31;94451.91;;;8.27;100.00
6680;BME280;3376;42.664;23.346;2022-12-07T07:49:58;94438.00;;;8.45;100.00
6680;BME280;3376;42.664;23.346;2022-12-07T07:52:26;94463.47;;;8.64;100.00
6680;BME280;3376;42.664;23.346;2022-12-07T07:54:53;94456.56;;;8.95;100.00
6680;BME280;3376;42.664;23.346;2022-12-07T07:57:19;94464.78;;;9.37;100.00
6680;BME280;3376;42.664;23.346;2022-12-07T07:59:47;94458.81;;;10.12;100.00
6680;BME280;3376;42.664;23.346;2022-12-07T08:02:16;94464.75;;;10.87;100.00
6680;BME280;3376;42.664;23.346;2022-12-07T08:04:43;94416.28;;;10.44;100.00
6680;BME280;3376;42.664;23.346;2022-12-07T08:07:10;94335.28;;;9.69;100.00
6680;BME280;3376;42.664;23.346;2022-12-07T08:09:38;94471.22;;;10.39;100.00
6680;BME280;3376;42.664;23.346;2022-12-07T08:12:05;94473.81;;;10.17;100.00
6680;BME280;3376;42.664;23.346;2022-12-07T08:14:33;94467.72;;;9.87;100.00
6680;BME280;3376;42.664;23.346;2022-12-07T08:17:01;94452.03;;;9.66;100.00
6680;BME280;3376;42.664;23.346;2022-12-07T08:19:28;94458.66;;;9.61;100.00
6680;BME280;3376;42.664;23.346;2022-12-07T08:21:55;94457.84;;;9.60;100.00
6680;BME280;3376;42.664;23.346;2022-12-07T08:24:22;94459.38;;;9.55;100.00
6680;BME280;3376;42.664;23.346;2022-12-07T08:26:48;94463.50;;;9.64;100.00
6680;BME280;3376;42.664;23.346;2022-12-07T08:29:15;94464.66;;;9.61;100.00
6680;BME280;3376;42.664;23.346;2022-12-07T08:31:42;94454.50;;;9.60;100.00
6680;BME280;3376;42.664;23.346;2022-12-07T08:34:11;94461.66;;;9.72;100.00
6680;BME280;3376;42.664;23.346;2022-12-07T08:36:39;94458.59;;;9.77;100.00
6680;BME280;3376;42.664;23.346;2022-12-07T08:39:06;94459.06;;;9.72;100.00
6680;BME280;3376;42.664;23.346;2022-12-07T08:41:33;94457.06;;;9.60;100.00
6680;BME280;3376;42.664;23.346;2022-12-07T08:43:59;94460.50;;;9.52;100.00
6680;BME280;3376;42.664;23.346;2022-12-07T08:46:29;94451.94;;;9.21;100.00
6680;BME280;3376;42.664;23.346;2022-12-07T08:49:02;94440.00;;;9.20;100.00
6680;BME280;3376;42.664;23.346;2022-12-07T08:51:31;94426.97;;;9.05;100.00
6680;BME280;3376;42.664;23.346;2022-12-07T08:53:58;94445.81;;;9.22;100.00
6680;BME280;3376;42.664;23.346;2022-12-07T08:56:27;94359.75;;;8.83;100.00
6680;BME280;3376;42.664;23.346;2022-12-07T08:58:54;94442.16;;;9.39;100.00
6680;BME280;3376;42.664;23.346;2022-12-07T09:01:21;94429.72;;;9.34;100.00
6680;BME280;3376;42.664;23.346;2022-12-07T09:03:48;94431.00;;;9.38;100.00
6680;BME280;3376;42.664;23.346;2022-12-07T09:06:14;94401.53;;;9.25;100.00
6680;BME280;3376;42.664;23.346;2022-12-07T09:08:46;94418.16;;;9.30;100.00
6680;BME280;3376;42.664;23.346;2022-12-07T09:11:13;94427.63;;;9.38;100.00
6680;BME280;3376;42.664;23.346;2022-12-07T09:13:40;94425.13;;;9.22;100.00
6680;BME280;3376;42.664;23.346;2022-12-07T09:16:07;94420.38;;;9.33;100.00
6680;BME280;3376;42.664;23.346;2022-12-07T09:18:34;94419.50;;;9.18;100.00
6680;BME280;3376;42.664;23.346;2022-12-07T09:21:00;94262.03;;;7.86;100.00
6680;BME280;3376;42.664;23.346;2022-12-07T09:23:27;94418.19;;;8.84;100.00
6680;BME280;3376;42.664;23.346;2022-12-07T09:25:58;94405.38;;;8.98;100.00
6680;BME280;3376;42.664;23.346;2022-12-07T09:28:25;94418.69;;;9.18;100.00
6680;BME280;3376;42.664;23.346;2022-12-07T09:30:52;94411.75;;;9.41;100.00
6680;BME280;3376;42.664;23.346;2022-12-07T09:33:19;94374.97;;;9.31;100.00
6680;BME280;3376;42.664;23.346;2022-12-07T09:35:46;94408.91;;;9.59;100.00
6680;BME280;3376;42.664;23.346;2022-12-07T09:38:13;94383.16;;;9.42;100.00
6680;BME280;3376;42.664;23.346;2022-12-07T09:40:41;94353.38;;;9.24;100.00
6680;BME280;3376;42.664;23.346;2022-12-07T09:43:14;94393.91;;;9.54;100.00
6680;BME280;3376;42.664;23.346;2022-12-07T09:45:42;94366.56;;;9.37;100.00
6680;BME280;3376;42.664;23.346;2022-12-07T09:48:17;94393.63;;;9.49;100.00
6680;BME280;3376;42.664;23.346;2022-12-07T09:50:46;94372.97;;;9.41;100.00
6680;BME280;3376;42.664;23.346;2022-12-07T09:53:15;94392.28;;;9.53;100.00
6680;BME280;3376;42.664;23.346;2022-12-07T09:55:45;94379.66;;;9.58;100.00
6680;BME280;3376;42.664;23.346;2022-12-07T09:58:19;94383.59;;;9.69;100.00
6680;BME280;3376;42.664;23.346;2022-12-07T10:00:47;94362.81;;;9.62;100.00
6680;BME280;3376;42.664;23.346;2022-12-07T10:03:14;94372.69;;;9.59;100.00
6680;BME280;3376;42.664;23.346;2022-12-07T10:05:44;94377.03;;;9.81;100.00
6680;BME280;3376;42.664;23.346;2022-12-07T10:08:12;94349.22;;;9.83;100.00
6680;BME280;3376;42.664;23.346;2022-12-07T10:10:41;94381.91;;;9.98;100.00
6680;BME280;3376;42.664;23.346;2022-12-07T10:13:09;94372.78;;;10.10;100.00
6680;BME280;3376;42.664;23.346;2022-12-07T10:15:47;94360.03;;;10.23;100.00
6680;BME280;3376;42.664;23.346;2022-12-07T10:18:26;94360.59;;;10.33;100.00
6680;BME280;3376;42.664;23.346;2022-12-07T10:21:01;94337.19;;;10.41;100.00
6680;BME280;3376;42.664;23.346;2022-12-07T10:23:29;94369.53;;;10.75;100.00
6680;BME280;3376;42.664;23.346;2022-12-07T10:25:56;94356.47;;;10.53;100.00
6680;BME280;3376;42.664;23.346;2022-12-07T10:28:23;94352.97;;;10.76;100.00
6680;BME280;3376;42.664;23.346;2022-12-07T10:30:55;94349.34;;;11.06;100.00
6680;BME280;3376;42.664;23.346;2022-12-07T10:33:29;94338.81;;;11.28;99.58
6680;BME280;3376;42.664;23.346;2022-12-07T10:35:57;94315.31;;;11.30;96.78
6680;BME280;3376;42.664;23.346;2022-12-07T10:38:25;94338.44;;;11.67;94.80
6680;BME280;3376;42.664;23.346;2022-12-07T10:41:04;94311.78;;;11.58;94.95
6680;BME280;3376;42.664;23.346;2022-12-07T10:43:31;94344.84;;;11.71;93.89
6680;BME280;3376;42.664;23.346;2022-12-07T10:46:18;94336.44;;;11.69;93.84
6680;BME280;3376;42.664;23.346;2022-12-07T10:48:56;94313.16;;;11.54;93.67
6680;BME280;3376;42.664;23.346;2022-12-07T10:51:33;94337.16;;;11.63;93.20
6680;BME280;3376;42.664;23.346;2022-12-07T10:54:10;94325.38;;;11.39;94.96
6680;BME280;3376;42.664;23.346;2022-12-07T10:56:50;94317.25;;;11.28;95.81
6680;BME280;3376;42.664;23.346;2022-12-07T10:59:39;94314.94;;;11.33;96.08
6680;BME280;3376;42.664;23.346;2022-12-07T11:02:24;94248.88;;;11.08;95.40
6680;BME280;3376;42.664;23.346;2022-12-07T11:05:04;94293.84;;;11.36;98.13
6680;BME280;3376;42.664;23.346;2022-12-07T11:07:42;94298.31;;;11.48;96.03
6680;BME280;3376;42.664;23.346;2022-12-07T11:10:16;94281.97;;;11.48;95.47
6680;BME280;3376;42.664;23.346;2022-12-07T11:12:56;94306.19;;;11.55;94.30
6680;BME280;3376;42.664;23.346;2022-12-07T11:15:26;94305.06;;;11.64;94.46
6680;BME280;3376;42.664;23.346;2022-12-07T11:18:02;94293.41;;;11.53;94.10
6680;BME280;3376;42.664;23.346;2022-12-07T11:20:39;94303.28;;;11.64;94.13
6680;BME280;3376;42.664;23.346;2022-12-07T11:23:16;94290.31;;;11.64;92.37
6680;BME280;3376;42.664;23.346;2022-12-07T11:25:51;94298.91;;;11.65;92.91
6680;BME280;3376;42.664;23.346;2022-12-07T11:28:31;94248.00;;;11.01;92.76
6680;BME280;3376;42.664;23.346;2022-12-07T11:31:12;94276.28;;;11.38;94.31
6680;BME280;3376;42.664;23.346;2022-12-07T11:33:45;94234.56;;;11.33;94.16
6680;BME280;3376;42.664;23.346;2022-12-07T11:36:29;94266.03;;;11.72;91.93
6680;BME280;3376;42.664;23.346;2022-12-07T11:39:00;94227.31;;;11.70;91.11
6680;BME280;3376;42.664;23.346;2022-12-07T11:41:30;94268.88;;;12.11;90.02
6680;BME280;3376;42.664;23.346;2022-12-07T11:44:02;94269.72;;;12.18;89.41
6680;BME280;3376;42.664;23.346;2022-12-07T11:46:43;94270.06;;;12.09;89.31
6680;BME280;3376;42.664;23.346;2022-12-07T11:49:19;94265.19;;;11.93;88.85
6680;BME280;3376;42.664;23.346;2022-12-07T11:51:51;94263.19;;;11.95;89.28
6680;BME280;3376;42.664;23.346;2022-12-07T11:54:21;94250.03;;;11.96;90.40
6680;BME280;3376;42.664;23.346;2022-12-07T11:56:51;94262.16;;;12.23;89.94
6680;BME280;3376;42.664;23.346;2022-12-07T11:59:23;94252.34;;;12.53;88.66
6680;BME280;3376;42.664;23.346;2022-12-07T12:01:57;94255.59;;;12.68;87.92
6680;BME280;3376;42.664;23.346;2022-12-07T12:04:34;94241.03;;;12.86;86.63
6680;BME280;3376;42.664;23.346;2022-12-07T12:07:06;94248.03;;;12.92;85.03
6680;BME280;3376;42.664;23.346;2022-12-07T12:09:36;94229.41;;;12.82;84.32
6680;BME280;3376;42.664;23.346;2022-12-07T12:12:35;94236.50;;;13.08;84.46
6680;BME280;3376;42.664;23.346;2022-12-07T12:15:23;94241.38;;;13.50;83.39
6680;BME280;3376;42.664;23.346;2022-12-07T12:18:24;94233.84;;;14.39;79.93
6680;BME280;3376;42.664;23.346;2022-12-07T12:20:56;94229.50;;;15.95;74.93
6680;BME280;3376;42.664;23.346;2022-12-07T12:23:32;94217.09;;;17.70;67.86
6680;BME280;3376;42.664;23.346;2022-12-07T12:26:05;94204.78;;;18.51;62.12
6680;BME280;3376;42.664;23.346;2022-12-07T12:28:35;94191.69;;;18.51;60.51
6680;BME280;3376;42.664;23.346;2022-12-07T12:31:11;94203.63;;;19.26;57.43
6680;BME280;3376;42.664;23.346;2022-12-07T12:33:43;94209.19;;;19.74;53.52
6680;BME280;3376;42.664;23.346;2022-12-07T12:36:23;94185.59;;;19.63;51.54
6680;BME280;3376;42.664;23.346;2022-12-07T12:39:07;94199.59;;;19.07;52.71
6680;BME280;3376;42.664;23.346;2022-12-07T12:41:56;94190.03;;;18.61;54.33
6680;BME280;3376;42.664;23.346;2022-12-07T12:50:31;94178.88;;;21.93;44.75
6680;BME280;3376;42.664;23.346;2022-12-07T12:53:11;94142.63;;;22.67;41.22
6680;BME280;3376;42.664;23.346;2022-12-07T12:58:43;94191.53;;;25.64;35.17
6680;BME280;3376;42.664;23.346;2022-12-07T13:01:44;94194.75;;;26.81;31.76
6680;BME280;3376;42.664;23.346;2022-12-07T13:04:24;94204.84;;;27.02;31.38
6680;BME280;3376;42.664;23.346;2022-12-07T13:06:52;94187.66;;;26.71;31.69
6680;BME280;3376;42.664;23.346;2022-12-07T13:09:23;94138.06;;;26.61;31.69
6680;BME280;3376;42.664;23.346;2022-12-07T13:11:58;94196.66;;;27.78;30.75
6680;BME280;3376;42.664;23.346;2022-12-07T13:14:53;94197.81;;;28.09;29.92
6680;BME280;3376;42.664;23.346;2022-12-07T13:17:55;94201.09;;;28.01;30.08
6680;BME280;3376;42.664;23.346;2022-12-07T13:20:45;94206.28;;;28.43;29.15
6680;BME280;3376;42.664;23.346;2022-12-07T13:23:13;94209.00;;;28.70;28.60
6680;BME280;3376;42.664;23.346;2022-12-07T13:25:51;94201.09;;;28.65;28.73
6680;BME280;3376;42.664;23.346;2022-12-07T13:28:19;94196.94;;;28.27;28.78
6680;BME280;3376;42.664;23.346;2022-12-07T13:31:01;94171.09;;;27.77;29.28
6680;BME280;3376;42.664;23.346;2022-12-07T13:33:30;94203.50;;;27.05;30.06
6680;BME280;3376;42.664;23.346;2022-12-07T13:35:57;94188.53;;;26.67;31.04
6680;BME280;3376;42.664;23.346;2022-12-07T13:38:28;94177.63;;;26.63;30.95
6680;BME280;3376;42.664;23.346;2022-12-07T13:41:12;94193.16;;;26.80;30.86